sensor_id;sensor_type;location;lat;lon;timestamp;temperature;humidity
3262;DHT22;1643;47.746;9.000;2023-07-24T00:01:18;21.00;99.90
3262;DHT22;1643;47.746;9.000;2023-07-24T00:03:44;21.10;99.90
3262;DHT22;1643;47.746;9.000;2023-07-24T00:06:10;21.10;99.90
3262;DHT22;1643;47.746;9.000;2023-07-24T00:08:36;21.10;99.90
3262;DHT22;1643;47.746;9.000;2023-07-24T00:11:01;21.10;99.90
3262;DHT22;1643;47.746;9.000;2023-07-24T00:13:29;21.10;99.90
3262;DHT22;1643;47.746;9.000;2023-07-24T00:15:56;21.00;99.90
3262;DHT22;1643;47.746;9.000;2023-07-24T00:18:22;21.10;99.90
3262;DHT22;1643;47.746;9.000;2023-07-24T00:20:48;21.00;99.90
3262;DHT22;1643;47.746;9.000;2023-07-24T00:23:13;21.00;99.90
3262;DHT22;1643;47.746;9.000;2023-07-24T00:25:39;21.00;99.90
3262;DHT22;1643;47.746;9.000;2023-07-24T00:28:04;21.00;99.90
3262;DHT22;1643;47.746;9.000;2023-07-24T00:30:30;20.90;99.90
3262;DHT22;1643;47.746;9.000;2023-07-24T00:32:56;20.80;99.90
3262;DHT22;1643;47.746;9.000;2023-07-24T00:35:21;20.80;99.90
3262;DHT22;1643;47.746;9.000;2023-07-24T00:37:47;20.70;99.90
3262;DHT22;1643;47.746;9.000;2023-07-24T00:40:12;20.60;99.90
3262;DHT22;1643;47.746;9.000;2023-07-24T00:42:38;20.70;99.90
3262;DHT22;1643;47.746;9.000;2023-07-24T00:45:04;20.70;99.90
3262;DHT22;1643;47.746;9.000;2023-07-24T00:47:30;20.70;99.90
3262;DHT22;1643;47.746;9.000;2023-07-24T00:49:56;20.60;99.90
3262;DHT22;1643;47.746;9.000;2023-07-24T00:52:22;20.50;99.90
3262;DHT22;1643;47.746;9.000;2023-07-24T00:54:48;20.50;99.90
3262;DHT22;1643;47.746;9.000;2023-07-24T00:57:14;20.40;99.90
3262;DHT22;1643;47.746;9.000;2023-07-24T00:59:41;20.30;99.90
3262;DHT22;1643;47.746;9.000;2023-07-24T01:02:07;20.40;99.90
3262;DHT22;1643;47.746;9.000;2023-07-24T01:04:33;20.20;99.90
3262;DHT22;1643;47.746;9.000;2023-07-24T01:06:59;20.00;99.90
3262;DHT22;1643;47.746;9.000;2023-07-24T01:09:25;20.10;99.90
3262;DHT22;1643;47.746;9.000;2023-07-24T01:11:57;20.20;99.90
3262;DHT22;1643;47.746;9.000;2023-07-24T01:14:48;20.30;99.90
3262;DHT22;1643;47.746;9.000;2023-07-24T01:17:17;20.30;99.90
3262;DHT22;1643;47.746;9.000;2023-07-24T01:19:52;20.30;99.90
3262;DHT22;1643;47.746;9.000;2023-07-24T01:27:47;20.30;99.90
3262;DHT22;1643;47.746;9.000;2023-07-24T01:30:16;20.10;99.90
3262;DHT22;1643;47.746;9.000;2023-07-24T01:32:42;20.20;99.90
3262;DHT22;1643;47.746;9.000;2023-07-24T01:35:07;20.20;99.90
3262;DHT22;1643;47.746;9.000;2023-07-24T01:37:34;20.20;99.90
3262;DHT22;1643;47.746;9.000;2023-07-24T01:40:02;20.30;99.90
3262;DHT22;1643;47.746;9.000;2023-07-24T01:42:28;20.20;99.90
3262;DHT22;1643;47.746;9.000;2023-07-24T01:44:56;20.20;99.90
3262;DHT22;1643;47.746;9.000;2023-07-24T01:47:22;20.20;99.90
3262;DHT22;1643;47.746;9.000;2023-07-24T01:49:48;20.20;99.90
3262;DHT22;1643;47.746;9.000;2023-07-24T01:52:14;20.10;99.90
3262;DHT22;1643;47.746;9.000;2023-07-24T01:54:39;20.10;99.90
3262;DHT22;1643;47.746;9.000;2023-07-24T01:57:05;20.10;99.90
3262;DHT22;1643;47.746;9.000;2023-07-24T01:59:31;20.10;99.90
3262;DHT22;1643;47.746;9.000;2023-07-24T02:01:56;20.10;99.90
3262;DHT22;1643;47.746;9.000;2023-07-24T02:04:22;20.20;99.90
3262;DHT22;1643;47.746;9.000;2023-07-24T02:06:49;20.30;99.90
3262;DHT22;1643;47.746;9.000;2023-07-24T02:09:15;20.20;99.90
3262;DHT22;1643;47.746;9.000;2023-07-24T02:11:41;20.20;99.90
3262;DHT22;1643;47.746;9.000;2023-07-24T02:14:07;20.30;99.90
3262;DHT22;1643;47.746;9.000;2023-07-24T02:16:32;20.30;99.90
3262;DHT22;1643;47.746;9.000;2023-07-24T02:18:58;20.30;99.90
3262;DHT22;1643;47.746;9.000;2023-07-24T02:21:23;20.20;99.90
3262;DHT22;1643;47.746;9.000;2023-07-24T02:23:49;20.20;99.90
3262;DHT22;1643;47.746;9.000;2023-07-24T02:26:15;20.20;99.90
3262;DHT22;1643;47.746;9.000;2023-07-24T02:28:40;20.20;99.90
3262;DHT22;1643;47.746;9.000;2023-07-24T02:31:06;20.20;99.90
3262;DHT22;1643;47.746;9.000;2023-07-24T02:33:32;20.10;99.90
3262;DHT22;1643;47.746;9.000;2023-07-24T02:35:57;20.10;99.90
3262;DHT22;1643;47.746;9.000;2023-07-24T02:38:23;20.10;99.90
3262;DHT22;1643;47.746;9.000;2023-07-24T02:40:49;20.00;99.90
3262;DHT22;1643;47.746;9.000;2023-07-24T02:43:14;20.00;99.90
3262;DHT22;1643;47.746;9.000;2023-07-24T02:45:40;20.00;99.90
3262;DHT22;1643;47.746;9.000;2023-07-24T02:48:06;20.00;99.90
3262;DHT22;1643;47.746;9.000;2023-07-24T02:50:33;20.00;99.90
3262;DHT22;1643;47.746;9.000;2023-07-24T02:52:59;20.00;99.90
3262;DHT22;1643;47.746;9.000;2023-07-24T02:55:25;19.90;99.90
3262;DHT22;1643;47.746;9.000;2023-07-24T02:57:51;19.90;99.90
3262;DHT22;1643;47.746;9.000;2023-07-24T03:00:16;19.90;99.90
3262;DHT22;1643;47.746;9.000;2023-07-24T03:02:42;19.90;99.90
3262;DHT22;1643;47.746;9.000;2023-07-24T03:05:08;19.80;99.90
3262;DHT22;1643;47.746;9.000;2023-07-24T03:07:34;19.80;99.90
3262;DHT22;1643;47.746;9.000;2023-07-24T03:10:00;19.80;99.90
3262;DHT22;1643;47.746;9.000;2023-07-24T03:12:25;19.80;99.90
3262;DHT22;1643;47.746;9.000;2023-07-24T03:14:51;19.80;99.90
3262;DHT22;1643;47.746;9.000;2023-07-24T03:17:17;19.80;99.90
3262;DHT22;1643;47.746;9.000;2023-07-24T03:19:42;19.80;99.90
3262;DHT22;1643;47.746;9.000;2023-07-24T03:22:08;19.70;99.90
3262;DHT22;1643;47.746;9.000;2023-07-24T03:24:34;19.60;99.90
3262;DHT22;1643;47.746;9.000;2023-07-24T03:27:00;19.70;99.90
3262;DHT22;1643;47.746;9.000;2023-07-24T03:29:26;19.60;99.90
3262;DHT22;1643;47.746;9.000;2023-07-24T03:31:52;19.60;99.90
3262;DHT22;1643;47.746;9.000;2023-07-24T03:34:18;19.60;99.90
3262;DHT22;1643;47.746;9.000;2023-07-24T03:36:43;19.60;99.90
3262;DHT22;1643;47.746;9.000;2023-07-24T03:39:10;19.60;99.90
3262;DHT22;1643;47.746;9.000;2023-07-24T03:41:35;19.60;99.90
3262;DHT22;1643;47.746;9.000;2023-07-24T03:44:01;19.60;99.90
3262;DHT22;1643;47.746;9.000;2023-07-24T03:46:27;19.60;99.90
3262;DHT22;1643;47.746;9.000;2023-07-24T03:48:52;19.60;99.90
3262;DHT22;1643;47.746;9.000;2023-07-24T03:51:18;19.60;99.90
3262;DHT22;1643;47.746;9.000;2023-07-24T03:53:43;19.60;99.90
3262;DHT22;1643;47.746;9.000;2023-07-24T03:56:09;19.60;99.90
3262;DHT22;1643;47.746;9.000;2023-07-24T03:58:35;19.60;99.90
3262;DHT22;1643;47.746;9.000;2023-07-24T04:01:00;19.50;99.90
3262;DHT22;1643;47.746;9.000;2023-07-24T04:03:26;19.40;99.90
3262;DHT22;1643;47.746;9.000;2023-07-24T04:05:51;19.40;99.90
3262;DHT22;1643;47.746;9.000;2023-07-24T04:08:17;19.50;99.90
3262;DHT22;1643;47.746;9.000;2023-07-24T04:10:43;19.50;99.90
3262;DHT22;1643;47.746;9.000;2023-07-24T04:13:08;19.40;99.90
3262;DHT22;1643;47.746;9.000;2023-07-24T04:15:34;19.40;99.90
3262;DHT22;1643;47.746;9.000;2023-07-24T04:17:59;19.50;99.90
3262;DHT22;1643;47.746;9.000;2023-07-24T04:20:25;19.50;99.90
3262;DHT22;1643;47.746;9.000;2023-07-24T04:22:51;19.40;99.90
3262;DHT22;1643;47.746;9.000;2023-07-24T04:25:16;19.50;99.90
3262;DHT22;1643;47.746;9.000;2023-07-24T04:27:42;19.40;99.90
3262;DHT22;1643;47.746;9.000;2023-07-24T04:30:08;19.30;99.90
3262;DHT22;1643;47.746;9.000;2023-07-24T04:32:33;19.30;99.90
3262;DHT22;1643;47.746;9.000;2023-07-24T04:34:59;19.40;99.90
3262;DHT22;1643;47.746;9.000;2023-07-24T04:37:25;19.40;99.90
3262;DHT22;1643;47.746;9.000;2023-07-24T04:39:50;19.40;99.90
3262;DHT22;1643;47.746;9.000;2023-07-24T04:42:16;19.30;99.90
3262;DHT22;1643;47.746;9.000;2023-07-24T04:44:42;19.30;99.90
3262;DHT22;1643;47.746;9.000;2023-07-24T04:47:07;19.30;99.90
3262;DHT22;1643;47.746;9.000;2023-07-24T04:49:33;19.30;99.90
3262;DHT22;1643;47.746;9.000;2023-07-24T04:51:59;19.20;99.90
3262;DHT22;1643;47.746;9.000;2023-07-24T04:54:25;19.10;99.90
3262;DHT22;1643;47.746;9.000;2023-07-24T04:56:50;19.10;99.90
3262;DHT22;1643;47.746;9.000;2023-07-24T04:59:16;19.10;99.90
3262;DHT22;1643;47.746;9.000;2023-07-24T05:01:42;19.10;99.90
3262;DHT22;1643;47.746;9.000;2023-07-24T05:04:08;19.20;99.90
3262;DHT22;1643;47.746;9.000;2023-07-24T05:06:33;19.10;99.90
3262;DHT22;1643;47.746;9.000;2023-07-24T05:09:01;19.10;99.90
3262;DHT22;1643;47.746;9.000;2023-07-24T05:11:27;19.10;99.90
3262;DHT22;1643;47.746;9.000;2023-07-24T05:13:52;19.20;99.90
3262;DHT22;1643;47.746;9.000;2023-07-24T05:16:18;19.20;99.90
3262;DHT22;1643;47.746;9.000;2023-07-24T05:18:44;19.20;99.90
3262;DHT22;1643;47.746;9.000;2023-07-24T05:21:09;19.40;99.90
3262;DHT22;1643;47.746;9.000;2023-07-24T05:23:35;19.70;99.90
3262;DHT22;1643;47.746;9.000;2023-07-24T05:26:02;19.80;99.90
3262;DHT22;1643;47.746;9.000;2023-07-24T05:28:29;19.90;99.90
3262;DHT22;1643;47.746;9.000;2023-07-24T05:30:55;19.90;99.90
3262;DHT22;1643;47.746;9.000;2023-07-24T05:33:21;19.80;99.90
3262;DHT22;1643;47.746;9.000;2023-07-24T05:35:48;19.80;99.90
3262;DHT22;1643;47.746;9.000;2023-07-24T05:38:15;19.70;99.90
3262;DHT22;1643;47.746;9.000;2023-07-24T05:40:40;19.60;99.90
3262;DHT22;1643;47.746;9.000;2023-07-24T05:43:06;19.60;99.90
3262;DHT22;1643;47.746;9.000;2023-07-24T05:45:32;19.60;99.90
3262;DHT22;1643;47.746;9.000;2023-07-24T05:47:57;19.70;99.90
3262;DHT22;1643;47.746;9.000;2023-07-24T05:50:23;19.70;99.90
3262;DHT22;1643;47.746;9.000;2023-07-24T05:52:48;19.60;99.90
3262;DHT22;1643;47.746;9.000;2023-07-24T05:55:14;19.40;99.90
3262;DHT22;1643;47.746;9.000;2023-07-24T05:57:40;19.40;99.90
3262;DHT22;1643;47.746;9.000;2023-07-24T06:00:06;19.40;99.90
3262;DHT22;1643;47.746;9.000;2023-07-24T06:02:32;19.50;99.90
3262;DHT22;1643;47.746;9.000;2023-07-24T06:04:58;19.50;99.90
3262;DHT22;1643;47.746;9.000;2023-07-24T06:07:23;19.50;99.90
3262;DHT22;1643;47.746;9.000;2023-07-24T06:09:49;19.60;99.90
3262;DHT22;1643;47.746;9.000;2023-07-24T06:12:15;19.50;99.90
3262;DHT22;1643;47.746;9.000;2023-07-24T06:14:41;19.50;99.90
3262;DHT22;1643;47.746;9.000;2023-07-24T06:17:06;19.60;99.90
3262;DHT22;1643;47.746;9.000;2023-07-24T06:19:32;19.60;99.90
3262;DHT22;1643;47.746;9.000;2023-07-24T06:21:57;19.70;99.90
3262;DHT22;1643;47.746;9.000;2023-07-24T06:24:23;19.70;99.90
3262;DHT22;1643;47.746;9.000;2023-07-24T06:26:49;19.80;99.90
3262;DHT22;1643;47.746;9.000;2023-07-24T06:29:15;19.80;99.90
3262;DHT22;1643;47.746;9.000;2023-07-24T06:31:41;19.90;99.90
3262;DHT22;1643;47.746;9.000;2023-07-24T06:34:07;19.90;99.90
3262;DHT22;1643;47.746;9.000;2023-07-24T06:36:32;19.90;99.90
3262;DHT22;1643;47.746;9.000;2023-07-24T06:38:58;20.00;99.90
3262;DHT22;1643;47.746;9.000;2023-07-24T06:41:24;20.10;99.90
3262;DHT22;1643;47.746;9.000;2023-07-24T06:43:50;20.10;99.90
3262;DHT22;1643;47.746;9.000;2023-07-24T06:46:16;20.10;99.90
3262;DHT22;1643;47.746;9.000;2023-07-24T06:48:42;20.20;99.90
3262;DHT22;1643;47.746;9.000;2023-07-24T06:51:08;20.20;99.90
3262;DHT22;1643;47.746;9.000;2023-07-24T06:53:33;20.30;99.90
3262;DHT22;1643;47.746;9.000;2023-07-24T06:55:59;20.30;99.90
3262;DHT22;1643;47.746;9.000;2023-07-24T06:58:25;20.50;99.90
3262;DHT22;1643;47.746;9.000;2023-07-24T07:00:50;20.80;99.90
3262;DHT22;1643;47.746;9.000;2023-07-24T07:03:16;21.00;99.90
3262;DHT22;1643;47.746;9.000;2023-07-24T07:05:42;21.10;99.90
3262;DHT22;1643;47.746;9.000;2023-07-24T07:08:07;21.20;99.90
3262;DHT22;1643;47.746;9.000;2023-07-24T07:10:33;21.20;99.90
3262;DHT22;1643;47.746;9.000;2023-07-24T07:12:59;21.20;99.90
3262;DHT22;1643;47.746;9.000;2023-07-24T07:15:24;21.20;99.90
3262;DHT22;1643;47.746;9.000;2023-07-24T07:17:50;21.10;99.90
3262;DHT22;1643;47.746;9.000;2023-07-24T07:20:15;21.20;99.90
3262;DHT22;1643;47.746;9.000;2023-07-24T07:22:41;21.20;99.90
3262;DHT22;1643;47.746;9.000;2023-07-24T07:25:07;21.10;99.90
3262;DHT22;1643;47.746;9.000;2023-07-24T07:27:33;21.20;99.90
3262;DHT22;1643;47.746;9.000;2023-07-24T07:29:58;21.30;99.90
3262;DHT22;1643;47.746;9.000;2023-07-24T07:32:24;21.40;99.90
3262;DHT22;1643;47.746;9.000;2023-07-24T07:34:50;21.50;99.90
3262;DHT22;1643;47.746;9.000;2023-07-24T07:37:16;21.40;99.90
3262;DHT22;1643;47.746;9.000;2023-07-24T07:39:41;21.40;99.90
3262;DHT22;1643;47.746;9.000;2023-07-24T07:42:07;21.50;99.90
3262;DHT22;1643;47.746;9.000;2023-07-24T07:44:33;21.40;99.90
3262;DHT22;1643;47.746;9.000;2023-07-24T07:46:58;21.40;99.90
3262;DHT22;1643;47.746;9.000;2023-07-24T07:49:24;21.50;99.90
3262;DHT22;1643;47.746;9.000;2023-07-24T07:51:50;21.50;99.90
3262;DHT22;1643;47.746;9.000;2023-07-24T07:54:15;21.60;99.90
3262;DHT22;1643;47.746;9.000;2023-07-24T07:56:41;21.70;99.90
3262;DHT22;1643;47.746;9.000;2023-07-24T07:59:07;21.80;99.90
3262;DHT22;1643;47.746;9.000;2023-07-24T08:01:35;21.90;99.90
3262;DHT22;1643;47.746;9.000;2023-07-24T08:04:01;21.90;99.90
3262;DHT22;1643;47.746;9.000;2023-07-24T08:06:26;21.90;99.90
3262;DHT22;1643;47.746;9.000;2023-07-24T08:08:52;21.90;99.90
3262;DHT22;1643;47.746;9.000;2023-07-24T08:11:18;21.90;99.90
3262;DHT22;1643;47.746;9.000;2023-07-24T08:13:43;21.90;99.90
3262;DHT22;1643;47.746;9.000;2023-07-24T08:16:15;21.80;99.90
3262;DHT22;1643;47.746;9.000;2023-07-24T08:18:48;21.80;99.90
3262;DHT22;1643;47.746;9.000;2023-07-24T08:21:14;21.80;99.90
3262;DHT22;1643;47.746;9.000;2023-07-24T08:23:41;21.60;99.90
3262;DHT22;1643;47.746;9.000;2023-07-24T08:26:06;21.50;99.90
3262;DHT22;1643;47.746;9.000;2023-07-24T08:28:33;21.50;99.90
3262;DHT22;1643;47.746;9.000;2023-07-24T08:31:01;21.50;99.90
3262;DHT22;1643;47.746;9.000;2023-07-24T08:33:28;21.50;99.90
3262;DHT22;1643;47.746;9.000;2023-07-24T08:36:01;21.50;99.90
3262;DHT22;1643;47.746;9.000;2023-07-24T08:38:27;21.50;99.90
3262;DHT22;1643;47.746;9.000;2023-07-24T08:43:27;21.50;99.90
3262;DHT22;1643;47.746;9.000;2023-07-24T08:45:54;21.50;99.90
3262;DHT22;1643;47.746;9.000;2023-07-24T08:48:20;21.40;99.90
3262;DHT22;1643;47.746;9.000;2023-07-24T08:50:47;21.50;99.90
3262;DHT22;1643;47.746;9.000;2023-07-24T08:53:14;21.50;99.90
3262;DHT22;1643;47.746;9.000;2023-07-24T08:55:40;21.60;99.90
3262;DHT22;1643;47.746;9.000;2023-07-24T08:58:07;21.70;99.90
3262;DHT22;1643;47.746;9.000;2023-07-24T09:00:34;21.90;99.90
3262;DHT22;1643;47.746;9.000;2023-07-24T09:03:00;21.90;99.90
3262;DHT22;1643;47.746;9.000;2023-07-24T09:05:26;22.00;99.90
3262;DHT22;1643;47.746;9.000;2023-07-24T09:07:53;22.20;99.90
3262;DHT22;1643;47.746;9.000;2023-07-24T09:10:27;22.10;99.90
3262;DHT22;1643;47.746;9.000;2023-07-24T09:12:53;22.40;99.90
3262;DHT22;1643;47.746;9.000;2023-07-24T09:15:18;22.60;99.90
3262;DHT22;1643;47.746;9.000;2023-07-24T09:17:51;22.80;99.90
3262;DHT22;1643;47.746;9.000;2023-07-24T09:20:18;22.90;99.90
3262;DHT22;1643;47.746;9.000;2023-07-24T09:22:51;22.90;99.90
3262;DHT22;1643;47.746;9.000;2023-07-24T09:25:17;23.10;99.90
3262;DHT22;1643;47.746;9.000;2023-07-24T09:27:42;23.30;99.90
3262;DHT22;1643;47.746;9.000;2023-07-24T09:30:15;23.30;99.90
3262;DHT22;1643;47.746;9.000;2023-07-24T09:32:42;23.30;99.90
3262;DHT22;1643;47.746;9.000;2023-07-24T09:35:17;23.20;99.90
3262;DHT22;1643;47.746;9.000;2023-07-24T09:37:44;23.20;99.90
3262;DHT22;1643;47.746;9.000;2023-07-24T09:40:11;22.90;99.90
3262;DHT22;1643;47.746;9.000;2023-07-24T09:42:38;22.70;99.90
3262;DHT22;1643;47.746;9.000;2023-07-24T09:45:05;22.50;99.90
3262;DHT22;1643;47.746;9.000;2023-07-24T09:47:33;22.40;99.90
3262;DHT22;1643;47.746;9.000;2023-07-24T09:50:00;22.30;99.90
3262;DHT22;1643;47.746;9.000;2023-07-24T09:52:29;22.40;99.90
3262;DHT22;1643;47.746;9.000;2023-07-24T09:57:21;22.70;99.90
3262;DHT22;1643;47.746;9.000;2023-07-24T09:59:48;22.60;99.90
3262;DHT22;1643;47.746;9.000;2023-07-24T10:02:15;22.60;99.90
3262;DHT22;1643;47.746;9.000;2023-07-24T10:04:42;22.60;99.90
3262;DHT22;1643;47.746;9.000;2023-07-24T10:07:09;22.60;99.90
3262;DHT22;1643;47.746;9.000;2023-07-24T10:09:35;22.60;99.90
3262;DHT22;1643;47.746;9.000;2023-07-24T10:12:02;22.70;99.90
3262;DHT22;1643;47.746;9.000;2023-07-24T10:14:29;22.60;99.90
3262;DHT22;1643;47.746;9.000;2023-07-24T10:19:22;22.40;99.90
3262;DHT22;1643;47.746;9.000;2023-07-24T10:21:49;22.30;99.90
3262;DHT22;1643;47.746;9.000;2023-07-24T10:24:16;22.30;99.90
3262;DHT22;1643;47.746;9.000;2023-07-24T10:26:41;22.30;99.90
3262;DHT22;1643;47.746;9.000;2023-07-24T10:29:09;22.20;99.90
3262;DHT22;1643;47.746;9.000;2023-07-24T10:31:35;22.10;99.90
3262;DHT22;1643;47.746;9.000;2023-07-24T10:34:07;22.00;99.90
3262;DHT22;1643;47.746;9.000;2023-07-24T10:36:34;22.00;99.90
3262;DHT22;1643;47.746;9.000;2023-07-24T10:39:00;22.00;99.90
3262;DHT22;1643;47.746;9.000;2023-07-24T10:41:37;22.00;99.90
3262;DHT22;1643;47.746;9.000;2023-07-24T10:44:03;22.00;99.90
3262;DHT22;1643;47.746;9.000;2023-07-24T10:46:55;22.10;99.90
3262;DHT22;1643;47.746;9.000;2023-07-24T10:49:21;22.10;99.90
3262;DHT22;1643;47.746;9.000;2023-07-24T10:51:47;22.10;99.90
3262;DHT22;1643;47.746;9.000;2023-07-24T10:54:21;22.10;99.90
3262;DHT22;1643;47.746;9.000;2023-07-24T10:56:47;22.00;99.90
3262;DHT22;1643;47.746;9.000;2023-07-24T10:59:13;22.00;99.90
3262;DHT22;1643;47.746;9.000;2023-07-24T11:01:40;22.00;99.90
3262;DHT22;1643;47.746;9.000;2023-07-24T11:04:06;22.00;99.90
3262;DHT22;1643;47.746;9.000;2023-07-24T11:06:34;21.90;99.90
3262;DHT22;1643;47.746;9.000;2023-07-24T11:09:00;21.80;99.90
3262;DHT22;1643;47.746;9.000;2023-07-24T11:13:55;21.60;99.90
3262;DHT22;1643;47.746;9.000;2023-07-24T11:16:22;21.50;99.90
3262;DHT22;1643;47.746;9.000;2023-07-24T11:18:49;21.30;99.90
3262;DHT22;1643;47.746;9.000;2023-07-24T11:21:17;21.20;99.90
3262;DHT22;1643;47.746;9.000;2023-07-24T11:23:53;21.10;99.90
3262;DHT22;1643;47.746;9.000;2023-07-24T11:26:24;21.00;99.90
3262;DHT22;1643;47.746;9.000;2023-07-24T11:28:51;20.80;99.90
3262;DHT22;1643;47.746;9.000;2023-07-24T11:31:17;20.70;99.90
3262;DHT22;1643;47.746;9.000;2023-07-24T11:33:46;20.60;99.90
3262;DHT22;1643;47.746;9.000;2023-07-24T11:36:13;20.40;99.90
3262;DHT22;1643;47.746;9.000;2023-07-24T11:38:39;20.40;99.90
3262;DHT22;1643;47.746;9.000;2023-07-24T11:41:05;20.40;99.90
3262;DHT22;1643;47.746;9.000;2023-07-24T11:43:31;20.50;99.90
3262;DHT22;1643;47.746;9.000;2023-07-24T11:45:56;20.60;99.90
3262;DHT22;1643;47.746;9.000;2023-07-24T11:48:24;20.60;99.90
3262;DHT22;1643;47.746;9.000;2023-07-24T11:50:52;20.70;99.90
3262;DHT22;1643;47.746;9.000;2023-07-24T11:55:45;20.80;99.90
3262;DHT22;1643;47.746;9.000;2023-07-24T11:58:15;21.00;99.90
3262;DHT22;1643;47.746;9.000;2023-07-24T12:00:41;21.10;99.90
3262;DHT22;1643;47.746;9.000;2023-07-24T12:03:07;21.30;99.90
3262;DHT22;1643;47.746;9.000;2023-07-24T12:05:40;21.30;99.90
3262;DHT22;1643;47.746;9.000;2023-07-24T12:08:06;21.40;99.90
3262;DHT22;1643;47.746;9.000;2023-07-24T12:10:36;21.40;99.90
3262;DHT22;1643;47.746;9.000;2023-07-24T12:13:02;21.50;99.90
3262;DHT22;1643;47.746;9.000;2023-07-24T12:15:27;21.60;99.90
3262;DHT22;1643;47.746;9.000;2023-07-24T12:17:53;21.70;99.90
3262;DHT22;1643;47.746;9.000;2023-07-24T12:20:19;21.70;99.90
3262;DHT22;1643;47.746;9.000;2023-07-24T12:22:45;21.80;99.90
3262;DHT22;1643;47.746;9.000;2023-07-24T12:25:12;22.10;99.90
3262;DHT22;1643;47.746;9.000;2023-07-24T12:27:37;22.30;99.90
3262;DHT22;1643;47.746;9.000;2023-07-24T12:30:05;22.30;99.90
3262;DHT22;1643;47.746;9.000;2023-07-24T12:32:31;22.40;99.90
3262;DHT22;1643;47.746;9.000;2023-07-24T12:34:57;22.50;99.90
3262;DHT22;1643;47.746;9.000;2023-07-24T12:37:23;22.70;99.90
3262;DHT22;1643;47.746;9.000;2023-07-24T12:39:49;23.10;99.90
3262;DHT22;1643;47.746;9.000;2023-07-24T12:42:15;23.20;99.90
3262;DHT22;1643;47.746;9.000;2023-07-24T12:44:42;23.30;99.90
3262;DHT22;1643;47.746;9.000;2023-07-24T12:47:08;23.40;99.90
3262;DHT22;1643;47.746;9.000;2023-07-24T12:49:34;23.50;99.90
3262;DHT22;1643;47.746;9.000;2023-07-24T12:51:59;23.50;99.90
3262;DHT22;1643;47.746;9.000;2023-07-24T12:54:25;23.50;99.90
3262;DHT22;1643;47.746;9.000;2023-07-24T12:56:51;23.80;99.90
3262;DHT22;1643;47.746;9.000;2023-07-24T12:59:17;24.00;99.90
3262;DHT22;1643;47.746;9.000;2023-07-24T13:01:43;24.00;99.90
3262;DHT22;1643;47.746;9.000;2023-07-24T13:04:09;24.10;99.90
3262;DHT22;1643;47.746;9.000;2023-07-24T13:06:34;24.20;99.90
3262;DHT22;1643;47.746;9.000;2023-07-24T13:09:02;24.30;99.90
3262;DHT22;1643;47.746;9.000;2023-07-24T13:11:28;24.40;99.90
3262;DHT22;1643;47.746;9.000;2023-07-24T13:13:54;24.20;99.90
3262;DHT22;1643;47.746;9.000;2023-07-24T13:16:20;24.10;99.90
3262;DHT22;1643;47.746;9.000;2023-07-24T13:18:46;24.00;99.90
3262;DHT22;1643;47.746;9.000;2023-07-24T13:21:11;24.00;99.90
3262;DHT22;1643;47.746;9.000;2023-07-24T13:23:37;24.00;99.90
3262;DHT22;1643;47.746;9.000;2023-07-24T13:26:03;23.80;99.90
3262;DHT22;1643;47.746;9.000;2023-07-24T13:28:29;23.80;99.90
3262;DHT22;1643;47.746;9.000;2023-07-24T13:30:55;23.70;99.90
3262;DHT22;1643;47.746;9.000;2023-07-24T13:33:22;23.60;99.90
3262;DHT22;1643;47.746;9.000;2023-07-24T13:35:48;23.50;99.90
3262;DHT22;1643;47.746;9.000;2023-07-24T13:38:15;23.60;99.90
3262;DHT22;1643;47.746;9.000;2023-07-24T13:40:41;23.70;99.90
3262;DHT22;1643;47.746;9.000;2023-07-24T13:43:07;23.70;99.90
3262;DHT22;1643;47.746;9.000;2023-07-24T13:45:33;23.80;99.90
3262;DHT22;1643;47.746;9.000;2023-07-24T13:47:59;24.00;99.90
3262;DHT22;1643;47.746;9.000;2023-07-24T13:50:25;24.10;99.90
3262;DHT22;1643;47.746;9.000;2023-07-24T13:52:50;24.00;99.90
3262;DHT22;1643;47.746;9.000;2023-07-24T13:55:16;24.00;99.90
3262;DHT22;1643;47.746;9.000;2023-07-24T13:57:42;23.80;99.90
3262;DHT22;1643;47.746;9.000;2023-07-24T14:00:08;23.70;99.90
3262;DHT22;1643;47.746;9.000;2023-07-24T14:02:33;23.50;99.90
3262;DHT22;1643;47.746;9.000;2023-07-24T14:04:59;23.30;99.90
3262;DHT22;1643;47.746;9.000;2023-07-24T14:07:25;23.20;99.90
3262;DHT22;1643;47.746;9.000;2023-07-24T14:09:50;23.30;99.90
3262;DHT22;1643;47.746;9.000;2023-07-24T14:12:16;23.30;99.90
3262;DHT22;1643;47.746;9.000;2023-07-24T14:14:41;23.30;99.90
3262;DHT22;1643;47.746;9.000;2023-07-24T14:17:07;23.30;99.90
3262;DHT22;1643;47.746;9.000;2023-07-24T14:19:33;23.30;99.90
3262;DHT22;1643;47.746;9.000;2023-07-24T14:21:58;23.30;99.90
3262;DHT22;1643;47.746;9.000;2023-07-24T14:24:24;23.20;99.90
3262;DHT22;1643;47.746;9.000;2023-07-24T14:26:50;23.10;99.90
3262;DHT22;1643;47.746;9.000;2023-07-24T14:29:15;23.00;99.90
3262;DHT22;1643;47.746;9.000;2023-07-24T14:31:44;23.00;99.90
3262;DHT22;1643;47.746;9.000;2023-07-24T14:34:10;23.00;99.90
3262;DHT22;1643;47.746;9.000;2023-07-24T14:36:40;23.00;99.90
3262;DHT22;1643;47.746;9.000;2023-07-24T14:39:06;23.00;99.90
3262;DHT22;1643;47.746;9.000;2023-07-24T14:41:33;22.80;99.90
3262;DHT22;1643;47.746;9.000;2023-07-24T14:43:59;22.70;99.90
3262;DHT22;1643;47.746;9.000;2023-07-24T14:46:24;22.60;99.90
3262;DHT22;1643;47.746;9.000;2023-07-24T14:48:50;22.50;99.90
3262;DHT22;1643;47.746;9.000;2023-07-24T14:51:16;22.50;99.90
3262;DHT22;1643;47.746;9.000;2023-07-24T14:53:41;22.50;99.90
3262;DHT22;1643;47.746;9.000;2023-07-24T14:56:07;22.40;99.90
3262;DHT22;1643;47.746;9.000;2023-07-24T14:58:32;22.30;99.90
3262;DHT22;1643;47.746;9.000;2023-07-24T15:00:59;22.30;99.90
3262;DHT22;1643;47.746;9.000;2023-07-24T15:03:25;22.30;99.90
3262;DHT22;1643;47.746;9.000;2023-07-24T15:05:50;22.20;99.90
3262;DHT22;1643;47.746;9.000;2023-07-24T15:08:17;22.20;99.90
3262;DHT22;1643;47.746;9.000;2023-07-24T15:10:43;22.10;99.90
3262;DHT22;1643;47.746;9.000;2023-07-24T15:13:10;22.00;99.90
3262;DHT22;1643;47.746;9.000;2023-07-24T15:15:36;22.00;99.90
3262;DHT22;1643;47.746;9.000;2023-07-24T15:18:01;21.90;99.90
3262;DHT22;1643;47.746;9.000;2023-07-24T15:20:27;22.00;99.90
3262;DHT22;1643;47.746;9.000;2023-07-24T15:22:53;22.00;99.90
3262;DHT22;1643;47.746;9.000;2023-07-24T15:25:19;21.90;99.90
3262;DHT22;1643;47.746;9.000;2023-07-24T15:27:45;21.90;99.90
3262;DHT22;1643;47.746;9.000;2023-07-24T15:30:11;21.90;99.90
3262;DHT22;1643;47.746;9.000;2023-07-24T15:32:37;22.00;99.90
3262;DHT22;1643;47.746;9.000;2023-07-24T15:35:03;22.00;99.90
3262;DHT22;1643;47.746;9.000;2023-07-24T15:37:29;21.90;99.90
3262;DHT22;1643;47.746;9.000;2023-07-24T15:39:55;22.00;99.90
3262;DHT22;1643;47.746;9.000;2023-07-24T15:42:21;22.10;99.90
3262;DHT22;1643;47.746;9.000;2023-07-24T15:44:48;22.30;99.90
3262;DHT22;1643;47.746;9.000;2023-07-24T15:47:14;22.60;99.90
3262;DHT22;1643;47.746;9.000;2023-07-24T15:49:40;22.80;99.90
3262;DHT22;1643;47.746;9.000;2023-07-24T15:52:06;23.10;99.90
3262;DHT22;1643;47.746;9.000;2023-07-24T15:54:32;23.40;99.90
3262;DHT22;1643;47.746;9.000;2023-07-24T15:56:58;23.40;99.90
3262;DHT22;1643;47.746;9.000;2023-07-24T15:59:23;23.10;99.90
3262;DHT22;1643;47.746;9.000;2023-07-24T16:01:50;22.90;99.90
3262;DHT22;1643;47.746;9.000;2023-07-24T16:04:16;22.90;99.90
3262;DHT22;1643;47.746;9.000;2023-07-24T16:06:42;22.90;99.90
3262;DHT22;1643;47.746;9.000;2023-07-24T16:09:08;23.10;99.90
3262;DHT22;1643;47.746;9.000;2023-07-24T16:11:33;23.30;99.90
3262;DHT22;1643;47.746;9.000;2023-07-24T16:13:59;23.10;99.90